createdAt,value
2019-05-10T00:12:37.188Z,15.18
2019-05-10T00:27:45.692Z,17.05
2019-05-10T00:42:52.706Z,17.27
2019-05-10T00:57:59.820Z,16.35
2019-05-10T01:13:07.538Z,14.85
2019-05-10T01:28:14.615Z,15.55
2019-05-10T01:43:21.274Z,15.93
2019-05-10T01:58:29.128Z,12.73
2019-05-10T02:13:38.286Z,12.98
2019-05-10T02:28:45.513Z,15.83
2019-05-10T02:43:52.608Z,13.43
2019-05-10T02:59:01.034Z,17.57
2019-05-10T03:14:13.243Z,11.68
2019-05-10T03:29:21.152Z,8.33
2019-05-10T03:44:27.917Z,11.15
2019-05-10T03:59:34.800Z,10.10
2019-05-10T04:14:41.716Z,10.15
2019-05-10T04:29:49.605Z,8.70
2019-05-10T04:44:56.430Z,9.38
2019-05-10T05:00:03.636Z,6.83
2019-05-10T05:15:10.843Z,7.17
2019-05-10T05:30:18.527Z,5.92
2019-05-10T05:45:28.302Z,4.92
2019-05-10T06:00:37.928Z,11.08
2019-05-10T06:15:42.717Z,3.37
2019-05-10T06:30:50.629Z,3.67
2019-05-10T06:45:57.722Z,2.90
2019-05-10T07:01:05.696Z,3.08
2019-05-10T07:16:14.533Z,2.75
2019-05-10T07:31:23.723Z,2.92
2019-05-10T07:46:30.648Z,2.45
2019-05-10T08:01:37.733Z,3.47
2019-05-10T08:16:44.301Z,2.30
2019-05-10T08:31:56.024Z,3.00
2019-05-10T08:47:07.585Z,1.82
2019-05-10T09:02:14.542Z,1.80
2019-05-10T09:17:28.086Z,2.00
2019-05-10T09:32:33.399Z,2.55
2019-05-10T09:47:43.553Z,2.12
2019-05-10T10:02:56.220Z,1.30
2019-05-10T10:17:58.740Z,1.30
2019-05-10T10:33:10.665Z,2.22
2019-05-10T10:48:14.111Z,1.50
2019-05-10T11:03:23.862Z,2.47
2019-05-10T11:18:31.733Z,4.10
2019-05-10T11:33:41.551Z,4.10
2019-05-10T11:48:48.137Z,3.77
2019-05-10T12:03:55.290Z,4.95
2019-05-10T12:19:15.054Z,1.65
2019-05-10T12:34:14.505Z,1.57
2019-05-10T12:49:21.688Z,1.87
2019-05-10T13:04:40.003Z,1.67
2019-05-10T13:19:37.518Z,1.82
2019-05-10T13:34:44.740Z,2.50
2019-05-10T13:49:52.020Z,3.98
2019-05-10T14:05:00.140Z,2.80
2019-05-10T14:20:19.729Z,7.55
2019-05-10T14:35:22.421Z,2.80
2019-05-10T14:50:30.511Z,3.92
2019-05-10T15:05:37.609Z,7.55
2019-05-10T15:20:44.785Z,3.87
2019-05-10T15:35:53.973Z,5.30
2019-05-10T15:51:02.062Z,5.87
2019-05-10T16:06:08.673Z,2.50
2019-05-10T16:21:19.836Z,3.10
2019-05-10T16:36:35.832Z,2.92
2019-05-10T16:51:47.664Z,3.22
2019-05-10T17:06:55.565Z,2.17
2019-05-10T17:22:02.416Z,2.30
2019-05-10T17:37:11.392Z,3.85
2019-05-10T17:52:18.701Z,3.70
2019-05-10T18:07:25.335Z,3.90
2019-05-10T18:22:42.214Z,6.80
2019-05-10T18:37:40.357Z,7.70
2019-05-10T18:52:49.033Z,9.33
2019-05-10T19:08:04.580Z,6.42
2019-05-10T19:23:05.927Z,10.05
2019-05-10T19:38:13.268Z,8.40
2019-05-10T19:53:21.410Z,13.32
2019-05-10T20:08:29.229Z,12.78
2019-05-10T20:23:36.517Z,12.37
2019-05-10T20:38:43.944Z,11.73
2019-05-10T20:53:51.075Z,11.70
2019-05-10T21:09:01.448Z,17.15
2019-05-10T21:24:10.778Z,16.37
2019-05-10T21:39:17.917Z,21.48
2019-05-10T21:54:24.901Z,17.48
2019-05-10T22:09:31.574Z,22.55
2019-05-10T22:24:38.362Z,28.85
2019-05-10T22:39:46.171Z,25.12
2019-05-10T22:54:53.252Z,23.52
2019-05-10T23:10:00.664Z,22.42
2019-05-10T23:25:09.177Z,23.95
2019-05-10T23:40:16.078Z,21.48
2019-05-10T23:55:23.713Z,18.42
